Time;durP1;ratioP1;P1;durP2;ratioP2;P2;SDS_P1;SDS_P2;PMS_P1;PMS_P2;Temp;Humidity;BMP_temperature;BMP_pressure;BME280_temperature;BME280_humidity;BME280_pressure;Samples;Min_cycle;Max_cycle;Signal;HPM_P1;HPM_P2
2021/01/19 00:01:21;;;;;;;14.23;8.02;;;;;;;-6.29;56.54;95228.38;4111969;28;20054;-70
2021/01/19 00:03:22;;;;;;;13.05;8.18;;;;;;;-6.28;56.41;95224.97;4097706;28;20094;-69
2021/01/19 00:05:23;;;;;;;16.45;9.23;;;;;;;-6.27;56.77;95225.81;4131873;28;20057;-70
2021/01/19 00:07:25;;;;;;;13.52;8.00;;;;;;;-6.20;56.53;95232.38;4118667;28;20054;-69
2021/01/19 00:09:26;;;;;;;12.55;7.72;;;;;;;-6.13;56.63;95228.78;4130834;28;20054;-71
2021/01/19 00:11:27;;;;;;;11.90;8.23;;;;;;;-6.22;56.11;95232.41;4130123;28;20058;-71
2021/01/19 00:13:28;;;;;;;13.52;8.38;;;;;;;-6.13;56.60;95225.38;4117891;28;20055;-70
2021/01/19 00:15:29;;;;;;;13.15;8.25;;;;;;;-6.14;55.53;95216.06;4125307;28;20050;-70
2021/01/19 00:17:31;;;;;;;12.60;7.15;;;;;;;-6.22;55.79;95234.97;4117623;28;20129;-69
2021/01/19 00:19:32;;;;;;;12.55;7.07;;;;;;;-6.28;56.60;95219.88;4129485;28;20056;-69
2021/01/19 00:21:33;;;;;;;13.85;7.47;;;;;;;-6.37;57.12;95217.56;4121360;28;20146;-70
2021/01/19 00:23:35;;;;;;;12.20;7.47;;;;;;;-6.22;56.08;95223.94;4125885;28;20058;-69
2021/01/19 00:25:36;;;;;;;11.60;7.40;;;;;;;-6.32;56.89;95232.72;4126291;28;20058;-69
2021/01/19 00:27:37;;;;;;;12.70;7.47;;;;;;;-6.35;56.94;95231.09;4117936;28;20081;-70
2021/01/19 00:29:38;;;;;;;10.48;7.28;;;;;;;-6.35;56.24;95230.28;4127844;28;20129;-70
2021/01/19 00:31:39;;;;;;;13.73;7.80;;;;;;;-6.35;56.51;95230.28;4120883;28;20050;-70
2021/01/19 00:33:41;;;;;;;12.43;7.43;;;;;;;-6.40;56.44;95225.31;4129671;28;20054;-73
2021/01/19 00:35:42;;;;;;;12.77;7.47;;;;;;;-6.39;56.70;95224.44;4127327;28;20042;-70
2021/01/19 00:37:43;;;;;;;12.82;7.55;;;;;;;-6.39;56.24;95222.75;4129851;28;20475;-69
2021/01/19 00:39:44;;;;;;;13.38;7.25;;;;;;;-6.38;57.15;95218.47;4124536;28;20055;-69
2021/01/19 00:41:45;;;;;;;12.52;7.18;;;;;;;-6.42;56.74;95219.44;4123745;28;20410;-70
2021/01/19 00:43:46;;;;;;;10.25;6.47;;;;;;;-6.46;56.48;95233.13;4129310;28;20120;-69
2021/01/19 00:45:48;;;;;;;13.25;7.63;;;;;;;-6.45;57.05;95211.88;4127081;28;20058;-70
2021/01/19 00:47:49;;;;;;;11.82;7.40;;;;;;;-6.48;56.32;95211.97;4130430;28;20056;-70
2021/01/19 00:49:50;;;;;;;10.52;7.07;;;;;;;-6.40;57.37;95220.22;4129710;28;20396;-70
2021/01/19 00:51:51;;;;;;;11.40;7.35;;;;;;;-6.33;57.20;95211.50;4129867;28;20542;-71
2021/01/19 00:53:52;;;;;;;15.48;7.65;;;;;;;-6.35;56.35;95215.81;4128678;28;20054;-69
2021/01/19 00:55:54;;;;;;;13.50;8.02;;;;;;;-6.28;56.83;95212.22;4129438;28;20070;-69
2021/01/19 00:57:56;;;;;;;15.98;8.27;;;;;;;-6.23;55.94;95219.72;4140210;28;20552;-71
2021/01/19 00:59:57;;;;;;;13.25;8.10;;;;;;;-6.22;56.33;95213.75;4115738;28;20090;-70
2021/01/19 01:01:59;;;;;;;11.50;6.68;;;;;;;-6.33;56.48;95214.06;4116358;28;20054;-69
2021/01/19 01:04:00;;;;;;;12.77;7.63;;;;;;;-6.28;56.37;95219.88;4122796;28;20054;-69
2021/01/19 01:06:01;;;;;;;12.18;7.40;;;;;;;-6.33;56.64;95208.13;4130023;28;20190;-69
2021/01/19 01:08:03;;;;;;;12.38;7.00;;;;;;;-6.35;55.84;95233.66;4129494;28;20308;-70
2021/01/19 01:10:09;;;;;;;10.85;7.43;;;;;;;-6.34;56.18;95214.94;4132264;28;20549;-70
2021/01/19 01:12:10;;;;;;;11.18;7.32;;;;;;;-6.35;55.86;95213.25;4128876;28;20524;-69
2021/01/19 01:14:12;;;;;;;11.95;6.78;;;;;;;-6.36;56.69;95211.59;4129627;28;20073;-70
2021/01/19 01:16:14;;;;;;;9.63;6.38;;;;;;;-6.46;56.49;95207.66;4128273;28;20054;-69
2021/01/19 01:18:16;;;;;;;9.70;6.40;;;;;;;-6.40;56.88;95197.28;4111395;28;20088;-70
2021/01/19 01:20:17;;;;;;;11.35;6.70;;;;;;;-6.33;56.73;95201.31;4118602;28;20059;-69
2021/01/19 01:22:19;;;;;;;11.30;6.35;;;;;;;-6.26;55.76;95204.50;4126552;28;20086;-70
2021/01/19 01:24:20;;;;;;;10.82;6.35;;;;;;;-6.38;55.51;95206.53;4128418;28;20050;-70
2021/01/19 01:26:23;;;;;;;11.02;6.25;;;;;;;-6.34;56.38;95204.75;4128446;28;20046;-70
2021/01/19 01:28:24;;;;;;;9.43;6.18;;;;;;;-6.32;56.48;95210.63;4128733;28;20064;-70
2021/01/19 01:30:25;;;;;;;10.98;6.43;;;;;;;-6.31;56.36;95209.75;4128252;28;20062;-69
2021/01/19 01:32:27;;;;;;;13.52;6.18;;;;;;;-6.33;56.01;95200.47;4128130;28;20105;-70
2021/01/19 01:34:28;;;;;;;10.30;5.97;;;;;;;-6.34;55.57;95204.75;4129780;28;20042;-70
2021/01/19 01:36:29;;;;;;;11.43;6.40;;;;;;;-6.35;55.99;95207.34;4125618;28;20078;-79
2021/01/19 01:38:30;;;;;;;10.75;5.85;;;;;;;-6.30;55.39;95210.56;4131631;28;20046;-80
2021/01/19 01:40:31;;;;;;;11.15;6.80;;;;;;;-6.28;56.22;95204.56;4128235;28;20050;-81
2021/01/19 01:42:33;;;;;;;10.43;6.55;;;;;;;-6.38;56.26;95200.63;4131959;28;20066;-80
2021/01/19 01:44:34;;;;;;;9.93;5.63;;;;;;;-6.35;56.26;95195.41;4120470;28;20042;-79
2021/01/19 01:46:36;;;;;;;13.00;6.95;;;;;;;-6.34;55.71;95194.56;4131776;28;20077;-81
2021/01/19 01:48:39;;;;;;;10.32;5.68;;;;;;;-6.42;55.88;95192.22;4114885;28;20057;-81
2021/01/19 01:50:41;;;;;;;10.25;6.22;;;;;;;-6.42;55.99;95196.50;4133335;28;20054;-81
2021/01/19 01:52:42;;;;;;;8.93;5.75;;;;;;;-6.35;55.69;95192.88;4131257;28;20050;-79
2021/01/19 01:54:49;;;;;;;10.60;6.10;;;;;;;-6.28;55.16;95194.38;4130854;28;20042;-79
2021/01/19 01:56:50;;;;;;;9.68;6.25;;;;;;;-6.25;55.45;95207.03;4138938;28;20495;-81
2021/01/19 01:58:52;;;;;;;10.00;6.15;;;;;;;-6.17;55.29;95204.25;4122020;28;20055;-80
2021/01/19 02:00:54;;;;;;;8.88;5.70;;;;;;;-6.15;55.43;95202.50;4127076;28;20069;-79
2021/01/19 02:02:57;;;;;;;10.43;5.90;;;;;;;-6.22;55.92;95201.81;4132999;28;20055;-80
2021/01/19 02:04:58;;;;;;;10.65;6.70;;;;;;;-6.31;56.06;95204.66;4132961;28;20050;-79
2021/01/19 02:07:05;;;;;;;9.57;6.07;;;;;;;-6.20;55.66;95204.31;4132041;28;20137;-79
2021/01/19 02:09:19;;;;;;;9.98;5.20;;;;;;;-6.26;56.16;95200.25;4131926;28;20070;-80
2021/01/19 02:11:44;;;;;;;9.40;5.82;;;;;;;-6.11;56.35;95200.66;4133919;28;20050;-79
2021/01/19 02:14:13;;;;;;;10.57;6.03;;;;;;;-6.08;55.69;95200.59;4122157;28;20567;-81
2021/01/19 02:16:33;;;;;;;10.15;6.25;;;;;;;-6.08;56.09;95198.84;4134526;28;20109;-81
2021/01/19 02:19:16;;;;;;;9.50;6.10;;;;;;;-6.08;55.27;95200.59;4133058;28;20057;-81
2021/01/19 02:21:48;;;;;;;11.73;6.28;;;;;;;-6.06;55.81;95206.47;4132576;28;20050;-79
2021/01/19 02:24:34;;;;;;;10.25;6.18;;;;;;;-6.09;55.17;95192.06;4133349;28;20499;-78
2021/01/19 02:26:44;;;;;;;9.65;5.88;;;;;;;-6.06;55.62;95186.91;4106421;28;20058;-79
2021/01/19 02:29:27;;;;;;;10.38;6.25;;;;;;;-6.03;56.04;95188.50;4134070;28;20522;-79
2021/01/19 02:32:06;;;;;;;11.05;7.07;;;;;;;-6.05;55.56;95190.28;4113677;28;20212;-80
2021/01/19 02:34:31;;;;;;;9.65;5.70;;;;;;;-6.07;55.58;95177.56;4133749;28;20046;-79
2021/01/19 02:36:43;;;;;;;;;;;;;;;-6.06;55.47;95191.16;4155555;28;20053;-79
2021/01/19 02:39:15;;;;;;;9.48;6.00;;;;;;;-6.09;55.48;95194.63;4143388;28;20336;-80
2021/01/19 02:41:17;;;;;;;11.73;7.18;;;;;;;-6.13;56.46;95187.13;4125769;28;20077;-80
2021/01/19 02:43:20;;;;;;;10.93;6.60;;;;;;;-6.09;55.48;95196.34;4135248;28;20056;-80
2021/01/19 02:45:22;;;;;;;11.13;6.78;;;;;;;-6.05;55.59;95200.47;4138948;28;20052;-80
2021/01/19 02:47:23;;;;;;;11.15;6.38;;;;;;;-6.10;56.05;95198.06;4140323;28;20056;-79
2021/01/19 02:49:24;;;;;;;9.18;6.03;;;;;;;-6.13;55.80;95212.63;4127639;28;20113;-80
2021/01/19 02:51:27;;;;;;;10.43;6.15;;;;;;;-6.13;55.88;95203.28;4137006;28;20054;-79
2021/01/19 02:53:29;;;;;;;10.70;5.97;;;;;;;-6.17;56.65;95194.06;4134316;28;20050;-80
2021/01/19 02:55:30;;;;;;;10.57;6.15;;;;;;;-6.14;56.61;95203.31;4144111;28;20054;-70
2021/01/19 02:58:05;;;;;;;10.07;6.38;;;;;;;-6.10;56.10;95213.38;4133073;28;20046;-70
2021/01/19 03:00:12;;;;;;;11.37;6.00;;;;;;;-6.08;55.55;95205.69;4118196;28;20051;-70
2021/01/19 03:02:19;;;;;;;12.18;6.72;;;;;;;-6.03;56.06;95203.81;4134625;28;20060;-70
2021/01/19 03:04:20;;;;;;;9.85;6.28;;;;;;;-6.05;55.72;95203.03;4143174;28;20041;-71
2021/01/19 03:06:22;;;;;;;11.65;6.72;;;;;;;-6.14;56.26;95205.88;4130903;28;20469;-70
2021/01/19 03:08:24;;;;;;;14.40;6.50;;;;;;;-6.12;55.79;95215.13;4128814;28;20104;-70
2021/01/19 03:10:25;;;;;;;11.52;6.28;;;;;;;-6.10;55.67;95207.44;4113161;28;20065;-69
2021/01/19 03:12:27;;;;;;;9.95;5.82;;;;;;;-6.01;56.06;95207.16;4104951;28;20130;-69
2021/01/19 03:14:28;;;;;;;10.20;5.65;;;;;;;-6.00;55.70;95213.91;4128829;28;20387;-69
2021/01/19 03:16:30;;;;;;;14.10;6.70;;;;;;;-6.03;55.95;95216.56;4133141;28;20129;-68
2021/01/19 03:18:32;;;;;;;12.30;6.40;;;;;;;-6.06;55.77;95209.03;4140255;28;20046;-70
2021/01/19 03:20:34;;;;;;;10.32;6.40;;;;;;;-6.02;56.68;95206.31;4129383;28;20058;-69
2021/01/19 03:22:35;;;;;;;11.23;6.45;;;;;;;-6.13;57.22;95212.63;4117391;28;20086;-70
2021/01/19 03:24:37;;;;;;;10.50;6.22;;;;;;;-6.05;56.16;95215.78;4127255;28;20128;-69
2021/01/19 03:26:38;;;;;;;10.70;6.18;;;;;;;-6.02;56.72;95220.81;4114183;28;20082;-70
2021/01/19 03:28:39;;;;;;;10.02;6.20;;;;;;;-6.10;57.25;95213.38;4120408;28;20085;-70
2021/01/19 03:30:40;;;;;;;9.23;6.10;;;;;;;-6.09;57.12;95214.19;4130406;28;20289;-69
2021/01/19 03:32:42;;;;;;;11.32;6.40;;;;;;;-6.05;56.78;95221.72;4130798;28;20399;-69
2021/01/19 03:34:43;;;;;;;12.30;7.35;;;;;;;-6.03;56.76;95209.75;4144727;28;20046;-70
2021/01/19 03:36:45;;;;;;;11.15;6.35;;;;;;;-6.03;55.96;95217.41;4116697;28;20046;-70
2021/01/19 03:38:46;;;;;;;8.90;6.32;;;;;;;-6.11;56.51;95221.88;4125107;28;20082;-69
2021/01/19 03:40:47;;;;;;;9.27;5.85;;;;;;;-6.04;56.69;95213.19;4118145;28;20043;-71
2021/01/19 03:42:48;;;;;;;10.02;5.88;;;;;;;-6.00;56.11;95224.13;4113896;28;20054;-70
2021/01/19 03:44:49;;;;;;;9.35;5.75;;;;;;;-5.92;55.79;95211.94;4123744;28;20491;-70
2021/01/19 03:46:51;;;;;;;12.20;6.05;;;;;;;-5.93;56.84;95212.84;4129216;28;20084;-69
2021/01/19 03:48:52;;;;;;;8.80;5.50;;;;;;;-5.93;56.68;95220.47;4128629;28;20531;-69
2021/01/19 03:50:53;;;;;;;9.88;6.05;;;;;;;-5.90;56.11;95222.09;4117306;28;20062;-69
2021/01/19 03:52:55;;;;;;;11.82;5.90;;;;;;;-5.98;55.97;95227.47;4120660;28;20062;-69
2021/01/19 03:54:56;;;;;;;9.45;6.00;;;;;;;-5.95;57.01;95219.72;4120617;28;20054;-70
2021/01/19 03:56:58;;;;;;;8.77;5.93;;;;;;;-5.93;57.00;95210.28;4126474;28;20060;-70
2021/01/19 03:58:59;;;;;;;9.32;5.90;;;;;;;-6.04;57.12;95223.41;4127591;28;20059;-70
2021/01/19 04:01:00;;;;;;;11.13;5.95;;;;;;;-5.98;56.32;95222.34;4112989;28;20512;-69
2021/01/19 04:03:02;;;;;;;8.77;5.85;;;;;;;-6.00;57.37;95219.00;4119743;28;21333;-70
2021/01/19 04:05:04;;;;;;;8.95;5.72;;;;;;;-6.06;56.71;95224.31;4122750;28;20050;-70
2021/01/19 04:07:05;;;;;;;9.90;5.68;;;;;;;-5.98;56.54;95218.13;4123853;28;20082;-69
2021/01/19 04:09:06;;;;;;;8.75;5.45;;;;;;;-6.05;56.58;95215.78;4132707;28;20118;-70
2021/01/19 04:11:08;;;;;;;8.77;5.55;;;;;;;-6.01;56.44;95217.34;4117907;28;20054;-70
2021/01/19 04:13:09;;;;;;;10.43;5.40;;;;;;;-5.89;56.22;95208.44;4131256;28;20055;-70
2021/01/19 04:15:11;;;;;;;9.10;5.25;;;;;;;-5.91;56.99;95213.63;4127746;28;20065;-68
2021/01/19 04:17:12;;;;;;;10.75;7.00;;;;;;;-5.94;56.46;95210.34;4130054;28;20046;-70
2021/01/19 04:19:14;;;;;;;8.70;5.70;;;;;;;-5.84;56.55;95221.91;4129227;28;20065;-71
2021/01/19 04:21:15;;;;;;;9.27;5.47;;;;;;;-5.84;56.89;95215.09;4128994;28;20145;-70
2021/01/19 04:23:16;;;;;;;9.68;5.63;;;;;;;-5.81;56.45;95219.25;4129269;28;20058;-70
2021/01/19 04:25:18;;;;;;;8.55;5.68;;;;;;;-5.87;56.77;95210.09;4129337;28;20140;-70
2021/01/19 04:27:19;;;;;;;10.32;5.40;;;;;;;-5.81;56.19;95209.03;4131995;28;20129;-80
2021/01/19 04:29:21;;;;;;;8.02;5.53;;;;;;;-5.81;56.66;95232.88;4133388;28;20050;-80
2021/01/19 04:31:22;;;;;;;10.60;5.72;;;;;;;-5.79;55.95;95218.31;4132026;28;20601;-80
2021/01/19 04:33:23;;;;;;;8.50;5.40;;;;;;;-5.77;56.35;95221.66;4132693;28;20058;-82
2021/01/19 04:35:24;;;;;;;9.63;5.40;;;;;;;-5.81;56.73;95225.22;4127743;28;20042;-81
2021/01/19 04:37:26;;;;;;;7.50;4.88;;;;;;;-5.76;56.17;95228.44;4140055;28;20072;-81
2021/01/19 04:39:27;;;;;;;9.63;5.85;;;;;;;-5.78;56.38;95222.56;4134565;28;20065;-79
2021/01/19 04:41:28;;;;;;;10.07;5.32;;;;;;;-5.73;56.00;95226.69;4132352;28;20054;-80
2021/01/19 04:43:29;;;;;;;9.43;5.88;;;;;;;-5.77;56.69;95228.47;4132916;28;20101;-80
2021/01/19 04:45:32;;;;;;;8.88;5.55;;;;;;;-5.84;57.12;95224.47;4131988;28;20103;-79
2021/01/19 04:47:34;;;;;;;10.70;6.27;;;;;;;-5.79;56.82;95225.97;4133392;28;20141;-82
2021/01/19 04:49:36;;;;;;;8.70;5.50;;;;;;;-5.79;56.80;95223.41;4119407;28;20087;-79
2021/01/19 04:51:39;;;;;;;13.48;6.10;;;;;;;-5.71;56.86;95230.84;4131970;28;20169;-79
2021/01/19 04:53:42;;;;;;;9.68;5.90;;;;;;;-5.68;56.11;95217.16;4131582;28;20049;-82
2021/01/19 04:55:53;;;;;;;13.15;5.30;;;;;;;-5.69;56.29;95212.94;4130921;28;20061;-79
2021/01/19 04:58:06;;;;;;;9.15;5.40;;;;;;;-5.59;56.04;95212.59;4118775;28;20488;-80
2021/01/19 05:00:08;;;;;;;10.60;5.78;;;;;;;-5.60;55.84;95210.09;4114509;28;20542;-83
2021/01/19 05:02:26;;;;;;;9.68;5.63;;;;;;;-5.64;56.06;95211.88;4119965;28;20054;-70
2021/01/19 05:04:27;;;;;;;8.95;5.20;;;;;;;-5.68;56.00;95214.59;4116470;28;20089;-70
2021/01/19 05:06:41;;;;;;;12.63;5.85;;;;;;;-5.62;55.89;95214.41;4112883;28;20097;-70
2021/01/19 05:08:54;;;;;;;9.27;5.67;;;;;;;-5.59;56.70;95220.25;4128540;28;20050;-70
2021/01/19 05:11:00;;;;;;;10.57;5.93;;;;;;;-5.60;56.20;95230.50;4117012;28;20776;-70
2021/01/19 05:13:10;;;;;;;11.07;5.28;;;;;;;-5.80;56.41;95244.72;4112103;28;20173;-72
2021/01/19 05:15:14;;;;;;;11.48;6.13;;;;;;;-5.77;56.92;95236.97;4112318;28;20051;-69
2021/01/19 05:17:15;;;;;;;10.77;5.90;;;;;;;-5.72;56.31;95226.63;4112718;28;20551;-69
2021/01/19 05:19:22;;;;;;;10.02;6.13;;;;;;;-5.68;56.26;95235.00;4122382;28;20112;-69
2021/01/19 05:21:23;;;;;;;10.95;6.03;;;;;;;-5.56;56.49;95226.97;4126768;28;20093;-71
2021/01/19 05:23:25;;;;;;;9.48;5.82;;;;;;;-5.51;56.03;95229.38;4130268;28;20133;-69
2021/01/19 05:25:26;;;;;;;10.80;6.22;;;;;;;-5.48;56.42;95232.66;4114794;28;20050;-70
2021/01/19 05:27:28;;;;;;;11.68;5.30;;;;;;;-5.46;56.27;95230.91;4140184;28;20455;-69
2021/01/19 05:29:30;;;;;;;11.30;6.13;;;;;;;-5.41;56.03;95226.47;4128257;28;20446;-70
2021/01/19 05:31:31;;;;;;;8.85;5.65;;;;;;;-5.38;56.33;95226.38;4118255;28;20050;-70
2021/01/19 05:33:35;;;;;;;9.63;5.68;;;;;;;-5.42;56.37;95227.38;4114235;28;20054;-70
2021/01/19 05:35:36;;;;;;;10.48;6.45;;;;;;;-5.37;56.23;95222.94;4119718;28;20057;-70
2021/01/19 05:37:38;;;;;;;9.77;5.70;;;;;;;-5.33;56.70;95226.22;4133576;28;20045;-71
2021/01/19 05:39:39;;;;;;;12.40;5.95;;;;;;;-5.31;56.37;95237.22;4137033;28;20054;-70
2021/01/19 05:41:43;;;;;;;10.32;6.05;;;;;;;-5.42;56.29;95229.94;4119014;28;20054;-71
2021/01/19 05:43:44;;;;;;;12.27;6.47;;;;;;;-5.52;56.83;95214.97;4123079;28;20472;-71
2021/01/19 05:45:50;;;;;;;11.07;5.93;;;;;;;-5.52;57.03;95228.53;4112577;28;20551;-73
2021/01/19 05:47:51;;;;;;;9.90;5.85;;;;;;;-5.46;56.58;95225.81;4117517;28;20054;-71
2021/01/19 05:49:52;;;;;;;13.05;6.35;;;;;;;-5.45;56.98;95221.53;4128170;28;20054;-71
2021/01/19 05:52:02;;;;;;;10.63;5.80;;;;;;;-5.48;56.87;95206.31;4127440;28;20096;-70
2021/01/19 05:54:03;;;;;;;11.00;6.07;;;;;;;-5.51;57.42;95214.06;4116117;28;20061;-70
2021/01/19 05:56:05;;;;;;;9.20;5.70;;;;;;;-5.47;57.51;95218.19;4126145;28;20122;-71
2021/01/19 05:58:16;;;;;;;9.60;5.57;;;;;;;-5.37;56.85;95212.72;4129522;28;20052;-71
2021/01/19 06:00:18;;;;;;;8.40;5.38;;;;;;;-5.32;56.95;95217.66;4126282;28;20062;-71
2021/01/19 06:02:21;;;;;;;11.85;5.78;;;;;;;-5.27;56.57;95214.97;4129250;28;20396;-71
2021/01/19 06:04:34;;;;;;;9.98;6.03;;;;;;;-5.17;57.11;95217.16;4117477;28;20074;-71
2021/01/19 06:06:36;;;;;;;10.47;6.67;;;;;;;-5.12;57.31;95218.72;4119335;28;20149;-71
2021/01/19 06:08:37;;;;;;;12.75;5.90;;;;;;;-5.16;57.34;95223.94;4128523;28;20289;-71
2021/01/19 06:10:38;;;;;;;11.40;6.22;;;;;;;-5.03;57.83;95218.44;4126215;28;20050;-71
2021/01/19 06:12:40;;;;;;;11.73;6.05;;;;;;;-5.07;57.56;95227.91;4120922;28;20047;-71
2021/01/19 06:14:50;;;;;;;14.07;6.97;;;;;;;-5.01;58.05;95237.91;4124261;28;20637;-71
2021/01/19 06:17:10;;;;;;;10.77;6.22;;;;;;;-5.04;57.90;95232.91;4118685;28;20496;-71
2021/01/19 06:19:25;;;;;;;10.30;5.25;;;;;;;-4.91;58.17;95233.31;4124701;28;20488;-72
2021/01/19 06:21:30;;;;;;;12.77;6.40;;;;;;;-4.87;57.71;95234.06;4123809;28;20484;-71
2021/01/19 06:23:31;;;;;;;12.20;6.35;;;;;;;-4.85;58.06;95242.50;4127201;28;20447;-71
2021/01/19 06:25:33;;;;;;;10.60;6.18;;;;;;;-4.82;58.31;95232.16;4119724;28;20130;-72
2021/01/19 06:27:34;;;;;;;11.88;5.53;;;;;;;-4.72;57.54;95233.50;4117434;28;20138;-73
2021/01/19 06:29:36;;;;;;;8.10;4.95;;;;;;;-4.79;57.92;95238.00;4123779;28;20061;-71
2021/01/19 06:31:38;;;;;;;10.02;6.15;;;;;;;-4.81;58.56;95244.06;4126672;28;20049;-71
2021/01/19 06:33:41;;;;;;;10.60;5.60;;;;;;;-4.64;57.89;95246.88;4116696;28;20047;-72
2021/01/19 06:35:42;;;;;;;12.95;6.75;;;;;;;-4.60;57.84;95245.88;4121252;28;20039;-72
2021/01/19 06:37:45;;;;;;;13.77;7.47;;;;;;;-4.56;57.90;95249.13;4126146;28;20081;-73
2021/01/19 06:39:46;;;;;;;11.07;6.18;;;;;;;-4.47;57.75;95247.97;4111322;28;20113;-70
2021/01/19 06:41:51;;;;;;;10.90;6.78;;;;;;;-4.43;57.74;95240.16;4122344;28;20655;-71
2021/01/19 06:43:55;;;;;;;11.48;6.13;;;;;;;-4.49;57.94;95248.03;4129228;28;20073;-71
2021/01/19 06:45:56;;;;;;;;;;;;;;;-4.48;58.37;95254.81;4118196;28;20082;-71
2021/01/19 06:48:00;;;;;;;10.07;6.28;;;;;;;-4.42;58.16;95257.16;4120027;28;19922;-72
2021/01/19 06:50:06;;;;;;;11.30;6.18;;;;;;;-4.25;57.54;95255.72;4127545;28;20116;-73
2021/01/19 06:52:15;;;;;;;17.15;8.98;;;;;;;-4.27;57.72;95250.66;4117964;28;20515;-71
2021/01/19 06:54:19;;;;;;;14.38;7.60;;;;;;;-4.28;57.72;95258.38;4126334;28;20086;-70
2021/01/19 06:56:22;;;;;;;14.82;7.70;;;;;;;-4.17;57.72;95251.16;4128086;28;20047;-72
2021/01/19 06:58:42;;;;;;;14.80;7.28;;;;;;;-4.12;57.23;95256.91;4125536;28;20042;-81
2021/01/19 07:00:44;;;;;;;16.70;7.47;;;;;;;-4.22;57.74;95258.97;4130524;28;20057;-81
2021/01/19 07:02:46;;;;;;;14.73;8.02;;;;;;;-4.24;57.72;95263.31;4132574;28;20057;-84
2021/01/19 07:04:55;;;;;;;14.02;7.25;;;;;;;-4.15;57.61;95257.88;4117350;28;20110;-81
2021/01/19 07:07:08;;;;;;;12.18;6.45;;;;;;;-4.11;57.99;95261.13;4134823;28;20133;-82
2021/01/19 07:09:56;;;;;;;10.48;6.32;;;;;;;-4.01;57.73;95277.00;4125716;28;20495;-70
2021/01/19 07:12:02;;;;;;;11.48;5.95;;;;;;;-4.15;57.95;95272.38;4102069;28;20047;-70
2021/01/19 07:14:11;;;;;;;9.75;5.97;;;;;;;-4.09;58.24;95269.59;4129001;28;20082;-72
2021/01/19 07:16:22;;;;;;;10.45;6.63;;;;;;;-3.89;57.86;95270.56;4129376;28;20051;-71
2021/01/19 07:18:44;;;;;;;12.98;6.78;;;;;;;-3.88;57.84;95272.25;4130838;28;20058;-71
2021/01/19 07:21:16;;;;;;;14.30;6.93;;;;;;;-3.92;58.29;95276.63;4126345;28;20108;-73
2021/01/19 07:23:34;;;;;;;13.48;7.65;;;;;;;-3.88;59.13;95283.31;4124870;28;20108;-73
2021/01/19 07:25:36;;;;;;;13.50;6.88;;;;;;;-3.94;59.81;95286.09;4122783;28;20046;-72
2021/01/19 07:27:37;;;;;;;16.00;6.93;;;;;;;-3.92;60.07;95280.03;4128841;28;20399;-72
2021/01/19 07:29:39;;;;;;;13.35;6.95;;;;;;;-3.95;60.44;95284.44;4125493;28;20077;-72
2021/01/19 07:31:40;;;;;;;13.82;7.50;;;;;;;-3.82;60.09;95288.22;4128785;28;20743;-71
2021/01/19 07:33:49;;;;;;;14.32;7.70;;;;;;;-3.93;60.10;95287.78;4129252;28;20468;-70
2021/01/19 07:35:50;;;;;;;16.15;7.72;;;;;;;-3.99;60.27;95299.06;4122390;28;20058;-72
2021/01/19 07:37:57;;;;;;;13.50;7.18;;;;;;;-4.40;60.64;95295.47;4123030;28;20055;-73
2021/01/19 07:39:58;;;;;;;14.07;8.32;;;;;;;-4.33;60.90;95284.94;4126348;28;20050;-71
2021/01/19 07:42:17;;;;;;;15.30;7.78;;;;;;;-4.16;61.12;95284.34;4125278;28;20462;-71
2021/01/19 07:44:22;;;;;;;14.40;7.65;;;;;;;-4.13;60.74;95288.50;4124958;28;20050;-72
2021/01/19 07:46:43;;;;;;;16.80;8.93;;;;;;;-4.01;60.60;95293.19;4120839;28;20555;-70
2021/01/19 07:48:45;;;;;;;15.70;7.63;;;;;;;-4.16;61.30;95292.00;4119395;28;20061;-72
2021/01/19 07:50:46;;;;;;;30.10;9.90;;;;;;;-4.19;61.25;95293.88;4127658;28;20138;-73
2021/01/19 07:52:48;;;;;;;17.63;9.68;;;;;;;-4.19;61.18;95299.81;4127943;28;20131;-72
2021/01/19 07:54:49;;;;;;;16.17;8.45;;;;;;;-4.20;61.75;95302.41;4118655;28;20105;-72
2021/01/19 07:56:50;;;;;;;12.45;7.15;;;;;;;-4.13;61.93;95306.41;4122061;28;20106;-71
2021/01/19 07:58:52;;;;;;;13.32;6.95;;;;;;;-4.06;61.60;95297.63;4124276;28;20154;-81
2021/01/19 08:00:56;;;;;;;16.13;8.50;;;;;;;-4.00;61.52;95304.25;4130940;28;20055;-86
2021/01/19 08:03:05;;;;;;;20.98;9.73;;;;;;;-3.91;60.89;95309.88;4121217;28;20065;-81
2021/01/19 08:05:06;;;;;;;19.20;9.63;;;;;;;-4.01;60.66;95311.09;4132878;28;20054;-82
2021/01/19 08:07:16;;;;;;;17.95;9.23;;;;;;;-4.05;61.37;95309.53;4124549;28;20047;-82
2021/01/19 08:09:20;;;;;;;17.85;9.55;;;;;;;-4.06;61.51;95319.84;4131520;28;20091;-82
2021/01/19 08:11:21;;;;;;;19.23;9.35;;;;;;;-3.96;61.61;95310.91;4134094;28;20133;-81
2021/01/19 08:13:37;;;;;;;24.02;10.15;;;;;;;-3.78;60.90;95315.38;4131542;28;20051;-81
2021/01/19 08:15:38;;;;;;;20.65;10.50;;;;;;;-3.67;60.97;95319.25;4133795;28;20125;-83
2021/01/19 08:17:48;;;;;;;17.70;9.02;;;;;;;-3.59;60.71;95319.78;4132736;28;20046;-83
2021/01/19 08:20:04;;;;;;;20.23;10.15;;;;;;;-3.47;60.40;95319.31;4137706;28;20154;-83
2021/01/19 08:22:06;;;;;;;21.92;9.77;;;;;;;-3.36;59.91;95321.44;4142009;28;20051;-82
2021/01/19 08:24:12;;;;;;;20.15;11.55;;;;;;;-3.44;59.89;95333.72;4141207;28;20046;-83
2021/01/19 08:26:13;;;;;;;22.73;10.50;;;;;;;-3.51;61.07;95333.13;4139376;28;20108;-85
2021/01/19 08:28:14;;;;;;;21.38;11.43;;;;;;;-3.58;61.53;95335.09;4138843;28;20056;-82
2021/01/19 08:30:24;;;;;;;17.77;10.27;;;;;;;-3.43;60.97;95341.34;4137521;28;20085;-84
2021/01/19 08:32:25;;;;;;;28.30;13.07;;;;;;;-3.42;60.93;95340.47;4128772;28;20046;-83
2021/01/19 08:34:30;;;;;;;22.27;11.38;;;;;;;-3.34;60.46;95335.88;4138757;28;20054;-84
2021/01/19 08:36:35;;;;;;;21.90;10.63;;;;;;;-3.19;60.36;95325.91;4132898;28;20084;-86
2021/01/19 08:38:36;;;;;;;19.30;10.75;;;;;;;-3.07;59.73;95330.56;4132879;28;20136;-84
2021/01/19 08:40:40;;;;;;;18.50;12.13;;;;;;;-3.27;59.99;95341.56;4138671;28;20053;-85
2021/01/19 08:42:41;;;;;;;43.78;18.35;;;;;;;-3.37;60.43;95330.88;4136216;28;20511;-82
2021/01/19 08:44:42;;;;;;;39.55;19.48;;;;;;;-3.60;61.41;95334.31;4133887;28;20058;-84
2021/01/19 08:46:44;;;;;;;26.10;13.90;;;;;;;-3.53;61.06;95338.31;4132782;28;20088;-84
2021/01/19 08:48:45;;;;;;;31.25;15.75;;;;;;;-3.49;61.36;95336.47;4132759;28;20046;-85
2021/01/19 08:50:47;;;;;;;34.42;13.60;;;;;;;-3.54;62.31;95338.38;4131802;28;20050;-83
2021/01/19 08:52:49;;;;;;;18.10;10.32;;;;;;;-3.39;62.38;95336.94;4133029;28;20062;-82
2021/01/19 08:54:51;;;;;;;21.20;9.15;;;;;;;-3.30;61.78;95337.41;4131559;28;20058;-83
2021/01/19 08:56:53;;;;;;;15.30;8.88;;;;;;;-3.21;61.73;95341.34;4125434;28;20054;-83
2021/01/19 08:58:54;;;;;;;16.50;9.48;;;;;;;-3.10;60.81;95334.09;4126567;28;20129;-82
2021/01/19 09:01:03;;;;;;;14.40;8.20;;;;;;;-3.06;60.96;95328.81;4132595;28;20062;-83
2021/01/19 09:03:17;;;;;;;14.98;8.52;;;;;;;-2.78;60.81;95331.94;4132779;28;20131;-82
2021/01/19 09:05:38;;;;;;;13.27;7.90;;;;;;;-2.77;60.70;95331.03;4132107;28;20129;-83
2021/01/19 09:07:39;;;;;;;14.60;8.40;;;;;;;-2.86;60.68;95331.44;4132407;28;20051;-82
2021/01/19 09:09:47;;;;;;;14.25;7.97;;;;;;;-2.82;60.29;95327.00;4126307;28;20503;-82
2021/01/19 09:11:51;;;;;;;11.95;7.05;;;;;;;-2.66;59.83;95328.03;4131421;28;20062;-83
2021/01/19 09:13:58;;;;;;;12.27;7.32;;;;;;;-2.62;59.70;95321.88;4129972;28;20057;-71
2021/01/19 09:15:59;;;;;;;11.43;7.20;;;;;;;-2.52;60.37;95314.63;4115593;28;20688;-72
2021/01/19 09:18:02;;;;;;;12.82;7.65;;;;;;;-2.49;60.33;95320.47;4119900;28;20082;-72
2021/01/19 09:20:08;;;;;;;12.52;7.18;;;;;;;-2.52;60.14;95320.59;4117664;28;20054;-72
2021/01/19 09:22:10;;;;;;;14.82;8.02;;;;;;;-2.52;59.98;95317.19;4124510;28;20061;-73
2021/01/19 09:24:13;;;;;;;12.80;7.47;;;;;;;-2.40;60.31;95315.84;4111496;28;20051;-73
2021/01/19 09:26:15;;;;;;;11.18;6.60;;;;;;;-2.41;59.84;95306.47;4120162;28;20404;-72
2021/01/19 09:28:16;;;;;;;11.48;7.10;;;;;;;-2.38;60.15;95303.78;4126299;28;20049;-71
2021/01/19 09:30:18;;;;;;;14.18;8.32;;;;;;;-2.37;60.40;95308.81;4099949;28;20419;-73
2021/01/19 09:32:20;;;;;;;13.15;6.80;;;;;;;-2.29;60.20;95311.91;4127296;28;20132;-73
2021/01/19 09:34:21;;;;;;;9.23;5.63;;;;;;;-2.21;60.47;95300.50;4114913;28;20125;-72
2021/01/19 09:36:23;;;;;;;11.95;6.85;;;;;;;-2.08;59.89;95294.72;4127140;28;20046;-71
2021/01/19 09:38:25;;;;;;;12.77;7.15;;;;;;;-1.96;58.74;95292.50;4123075;28;20538;-73
2021/01/19 09:40:43;;;;;;;13.18;7.00;;;;;;;-1.83;58.60;95293.63;4129151;28;20060;-71
2021/01/19 09:42:44;;;;;;;10.98;6.20;;;;;;;-1.94;58.81;95285.56;4128809;28;20050;-73